createdAt,value
2023-12-16T00:00:00.578Z,4.1
2023-12-16T00:05:00.575Z,4
2023-12-16T00:10:00.618Z,4
2023-12-16T00:15:00.543Z,4
2023-12-16T00:20:00.693Z,4
2023-12-16T00:25:00.552Z,4
2023-12-16T00:30:00.528Z,4.1
2023-12-16T00:35:00.531Z,4.2
2023-12-16T00:40:00.631Z,4.1
2023-12-16T00:45:00.529Z,4.1
2023-12-16T00:50:00.617Z,4.1
2023-12-16T00:55:00.595Z,4
2023-12-16T01:00:00.567Z,4
2023-12-16T01:05:00.582Z,4
2023-12-16T01:10:00.573Z,4
2023-12-16T01:15:00.548Z,3.9
2023-12-16T01:20:00.612Z,3.9
2023-12-16T01:25:00.575Z,4.1
2023-12-16T01:30:00.577Z,4
2023-12-16T01:35:00.524Z,4
2023-12-16T01:40:00.565Z,3.9
2023-12-16T01:45:00.537Z,3.9
2023-12-16T01:50:00.601Z,3.9
2023-12-16T01:55:00.599Z,3.9
2023-12-16T02:00:00.663Z,3.9
2023-12-16T02:05:00.526Z,3.9
2023-12-16T02:10:00.623Z,4
2023-12-16T02:15:00.560Z,4.1
2023-12-16T02:20:00.692Z,4.1
2023-12-16T02:25:00.570Z,4.1
2023-12-16T02:30:00.553Z,4
2023-12-16T02:35:00.564Z,4
2023-12-16T02:40:00.615Z,4
2023-12-16T02:45:00.544Z,3.9
2023-12-16T02:50:00.596Z,3.9
2023-12-16T02:55:00.604Z,3.9
2023-12-16T03:00:00.530Z,3.8
2023-12-16T03:05:00.623Z,3.8
2023-12-16T03:10:00.552Z,3.8
2023-12-16T03:15:00.526Z,3.8
2023-12-16T03:20:00.708Z,3.8
2023-12-16T03:25:00.643Z,3.8
2023-12-16T03:30:00.526Z,3.8
2023-12-16T03:35:00.521Z,3.8
2023-12-16T03:40:00.676Z,3.8
2023-12-16T03:45:00.571Z,3.8
2023-12-16T03:50:00.586Z,3.8
2023-12-16T03:55:00.568Z,3.8
2023-12-16T04:00:00.622Z,3.8
2023-12-16T04:05:00.571Z,3.8
2023-12-16T04:10:00.746Z,3.8
2023-12-16T04:15:00.532Z,3.7
2023-12-16T04:20:00.707Z,3.7
2023-12-16T04:25:00.581Z,3.7
2023-12-16T04:30:00.527Z,3.7
2023-12-16T04:35:00.528Z,3.7
2023-12-16T04:40:00.648Z,3.7
2023-12-16T04:45:00.539Z,3.7
2023-12-16T04:50:00.598Z,3.8
2023-12-16T04:55:00.548Z,3.8
2023-12-16T05:00:00.541Z,3.8
2023-12-16T05:05:00.523Z,3.8
2023-12-16T05:10:00.580Z,3.8
2023-12-16T05:15:00.535Z,3.8
2023-12-16T05:20:00.797Z,3.7
2023-12-16T05:25:00.539Z,3.8
2023-12-16T05:30:00.526Z,3.8
2023-12-16T05:35:00.529Z,3.8
2023-12-16T05:40:00.563Z,3.7
2023-12-16T05:45:00.541Z,3.7
2023-12-16T05:50:00.569Z,3.7
2023-12-16T05:55:00.650Z,3.8
2023-12-16T06:00:00.546Z,3.8
2023-12-16T06:05:00.548Z,3.8
2023-12-16T06:10:00.881Z,3.8
2023-12-16T06:15:00.525Z,3.8
2023-12-16T06:20:00.707Z,3.8
2023-12-16T06:25:00.594Z,3.8
2023-12-16T06:30:00.537Z,3.8
2023-12-16T06:35:00.522Z,3.8
2023-12-16T06:40:02.771Z,3.8
2023-12-16T06:45:00.528Z,3.8
2023-12-16T06:50:00.590Z,3.8
2023-12-16T06:55:00.545Z,3.8
2023-12-16T07:00:00.528Z,3.9
2023-12-16T07:05:02.598Z,3.9
2023-12-16T07:10:00.660Z,3.9
2023-12-16T07:15:00.533Z,3.9
2023-12-16T07:20:00.608Z,4
2023-12-16T07:25:02.935Z,4
2023-12-16T07:30:00.527Z,4
2023-12-16T07:35:00.570Z,4
2023-12-16T07:40:00.565Z,4
2023-12-16T07:45:00.538Z,4
2023-12-16T07:50:00.572Z,4
2023-12-16T07:55:00.557Z,4
2023-12-16T08:00:00.528Z,4
2023-12-16T08:05:00.525Z,4
2023-12-16T08:10:00.567Z,4
2023-12-16T08:15:00.545Z,4
2023-12-16T08:20:00.581Z,4
2023-12-16T08:25:00.546Z,4.1
2023-12-16T08:30:00.580Z,4.1
2023-12-16T08:35:00.610Z,4.2
2023-12-16T08:40:00.625Z,4.2
2023-12-16T08:45:00.543Z,4.2
2023-12-16T08:50:00.687Z,4.2
2023-12-16T08:55:00.563Z,4.2
2023-12-16T09:00:00.536Z,4.3
2023-12-16T09:05:00.530Z,4.3
2023-12-16T09:10:00.601Z,4.3
2023-12-16T09:15:00.532Z,4.3
2023-12-16T09:20:00.626Z,4.2
2023-12-16T09:25:00.643Z,4.4
2023-12-16T09:30:00.520Z,4.4
2023-12-16T09:35:00.524Z,4.4
2023-12-16T09:40:00.652Z,4.4
2023-12-16T09:45:00.538Z,4.4
2023-12-16T09:50:00.727Z,4.4
2023-12-16T09:55:00.579Z,4.4
2023-12-16T10:00:00.534Z,4.4
2023-12-16T10:05:00.529Z,4.4
2023-12-16T10:10:00.572Z,4.4
2023-12-16T10:15:00.553Z,4.4
2023-12-16T10:20:00.693Z,4.5
2023-12-16T10:25:00.568Z,4.5
2023-12-16T10:30:06.441Z,4.5
2023-12-16T10:35:00.534Z,4.6
2023-12-16T10:40:00.602Z,4.6
2023-12-16T10:45:00.548Z,4.7
2023-12-16T10:50:00.624Z,4.7
2023-12-16T10:55:00.778Z,4.8
2023-12-16T11:00:00.523Z,4.8
2023-12-16T11:05:00.586Z,4.9
2023-12-16T11:10:00.596Z,4.9
2023-12-16T11:15:00.532Z,4.9
2023-12-16T11:20:00.600Z,5
2023-12-16T11:25:00.667Z,5
2023-12-16T11:30:00.527Z,5
2023-12-16T11:35:00.640Z,5
2023-12-16T11:40:00.610Z,5.1
2023-12-16T11:45:00.523Z,5.1
2023-12-16T11:50:00.642Z,5.1
2023-12-16T11:55:00.592Z,5.1
2023-12-16T12:00:00.555Z,5
2023-12-16T12:05:00.571Z,5
2023-12-16T12:10:00.646Z,5
2023-12-16T12:15:00.528Z,5.1
2023-12-16T12:20:00.572Z,5
2023-12-16T12:25:00.558Z,5.1
2023-12-16T12:30:00.629Z,5.2
2023-12-16T12:35:02.261Z,5.2
2023-12-16T12:40:00.537Z,5.1
2023-12-16T12:45:00.661Z,5.2
2023-12-16T12:50:00.538Z,5.2
2023-12-16T12:55:00.973Z,5.2
2023-12-16T13:00:02.861Z,5.2
2023-12-16T13:05:00.614Z,5.1
2023-12-16T13:10:00.647Z,5.1
2023-12-16T13:15:00.586Z,5.2
2023-12-16T13:20:00.621Z,5.2
2023-12-16T13:25:00.546Z,5.2
2023-12-16T13:30:00.568Z,5.1
2023-12-16T13:35:00.530Z,5.1
2023-12-16T13:40:00.521Z,5.1
2023-12-16T13:45:00.592Z,5.1
2023-12-16T13:50:00.612Z,5.1
2023-12-16T13:55:02.193Z,5.1
2023-12-16T14:00:00.567Z,5.1
2023-12-16T14:05:00.576Z,5.1
2023-12-16T14:10:00.568Z,5.1
2023-12-16T14:15:00.547Z,5
2023-12-16T14:20:00.530Z,5
2023-12-16T14:25:00.552Z,5
2023-12-16T14:30:01.815Z,5
2023-12-16T14:35:00.979Z,5
2023-12-16T14:40:00.533Z,5
2023-12-16T14:45:00.594Z,5
2023-12-16T14:50:00.581Z,5
2023-12-16T14:55:00.526Z,4.9
2023-12-16T15:00:00.569Z,4.9
2023-12-16T15:05:00.523Z,4.7
2023-12-16T15:10:00.545Z,4.7
2023-12-16T15:15:00.581Z,4.7
2023-12-16T15:20:00.576Z,4.7
2023-12-16T15:25:00.541Z,4.7
2023-12-16T15:30:00.609Z,4.7
2023-12-16T15:35:00.634Z,4.7
2023-12-16T15:40:00.538Z,4.7
2023-12-16T15:45:00.594Z,4.7
2023-12-16T15:50:00.632Z,4.8
2023-12-16T15:55:00.529Z,4.8
2023-12-16T16:00:00.564Z,4.8
2023-12-16T16:05:00.566Z,4.8
2023-12-16T16:10:00.526Z,4.8
2023-12-16T16:15:00.574Z,4.7
2023-12-16T16:20:00.759Z,4.8
2023-12-16T16:25:00.529Z,4.8
2023-12-16T16:30:00.588Z,4.8
2023-12-16T16:35:00.646Z,4.8
2023-12-16T16:40:00.524Z,4.8
2023-12-16T16:45:00.545Z,4.8
2023-12-16T16:50:00.619Z,4.8
2023-12-16T16:55:00.525Z,4.8
2023-12-16T17:00:00.537Z,4.8
2023-12-16T17:05:00.651Z,4.8
2023-12-16T17:10:00.544Z,4.8
2023-12-16T17:15:00.585Z,4.8
2023-12-16T17:20:00.542Z,4.8
2023-12-16T17:25:00.525Z,4.8
2023-12-16T17:30:00.573Z,4.8
2023-12-16T17:35:00.525Z,4.8
2023-12-16T17:40:00.529Z,4.8
2023-12-16T17:45:00.551Z,4.8
2023-12-16T17:50:00.513Z,4.8
2023-12-16T17:55:00.540Z,4.8
2023-12-16T18:00:00.585Z,4.8
2023-12-16T18:05:00.566Z,4.8
2023-12-16T18:10:00.524Z,4.7
2023-12-16T18:15:00.624Z,4.7
2023-12-16T18:20:00.585Z,4.7
2023-12-16T18:25:00.527Z,4.7
2023-12-16T18:30:00.657Z,4.7
2023-12-16T18:35:00.529Z,4.7
2023-12-16T18:40:02.317Z,4.6
2023-12-16T18:45:00.646Z,4.6
2023-12-16T18:50:00.591Z,4.6
2023-12-16T18:55:00.566Z,4.6
2023-12-16T19:00:00.550Z,4.6
2023-12-16T19:05:00.548Z,4.6
2023-12-16T19:10:00.534Z,4.6
2023-12-16T19:15:00.550Z,4.6
2023-12-16T19:20:00.635Z,4.6
2023-12-16T19:25:00.553Z,4.6
2023-12-16T19:30:00.595Z,4.6
2023-12-16T19:35:00.530Z,4.6
2023-12-16T19:40:00.631Z,4.6
2023-12-16T19:45:00.577Z,4.7
2023-12-16T19:50:00.564Z,4.7
2023-12-16T19:55:00.539Z,4.7
2023-12-16T20:00:00.634Z,4.7
2023-12-16T20:05:00.532Z,4.7
2023-12-16T20:10:00.527Z,4.7
2023-12-16T20:15:00.581Z,4.7
2023-12-16T20:20:00.594Z,4.7
2023-12-16T20:25:00.562Z,4.7
2023-12-16T20:30:00.681Z,4.7
2023-12-16T20:35:00.576Z,4.7
2023-12-16T20:40:00.553Z,4.7
2023-12-16T20:45:00.559Z,4.7
2023-12-16T20:50:00.685Z,4.7
2023-12-16T20:55:00.520Z,4.7
2023-12-16T21:00:00.576Z,4.7
2023-12-16T21:05:00.535Z,4.8
2023-12-16T21:10:00.532Z,4.8
2023-12-16T21:15:00.613Z,4.8
2023-12-16T21:20:00.523Z,4.8
2023-12-16T21:25:00.525Z,4.8
2023-12-16T21:30:00.783Z,4.8
2023-12-16T21:35:00.695Z,4.8
2023-12-16T21:40:00.564Z,4.8
2023-12-16T21:45:00.601Z,4.8
2023-12-16T21:50:00.568Z,4.8
2023-12-16T22:00:00.800Z,4.8
2023-12-16T22:05:00.554Z,4.8
2023-12-16T22:10:00.659Z,4.8
2023-12-16T22:15:00.692Z,4.8
2023-12-16T22:20:00.859Z,4.8
2023-12-16T22:25:00.515Z,4.8
2023-12-16T22:30:00.620Z,4.7
2023-12-16T22:35:00.566Z,4.7
2023-12-16T22:40:00.544Z,4.7
2023-12-16T22:45:00.563Z,4.7
2023-12-16T22:50:00.741Z,4.7
2023-12-16T22:55:00.527Z,4.7
2023-12-16T23:00:00.577Z,4.7
2023-12-16T23:05:00.538Z,4.6
2023-12-16T23:10:00.566Z,4.6
2023-12-16T23:15:00.599Z,4.6
2023-12-16T23:20:00.554Z,4.6
2023-12-16T23:25:00.525Z,4.6
2023-12-16T23:30:00.544Z,4.6
2023-12-16T23:35:00.522Z,4.6
2023-12-16T23:40:00.533Z,4.6
2023-12-16T23:45:00.551Z,4.5
2023-12-16T23:50:00.564Z,4.5
2023-12-16T23:55:00.631Z,4.5
